createdAt,value
2019-04-07T00:02:22.494Z,100095.48
2019-04-07T00:05:11.118Z,100097.48
2019-04-07T00:07:33.382Z,100106.59
2019-04-07T00:10:08.424Z,100098.70
2019-04-07T00:12:39.143Z,100100.80
2019-04-07T00:15:10.422Z,100098.48
2019-04-07T00:17:53.143Z,100103.50
2019-04-07T00:20:23.993Z,100101.89
2019-04-07T00:22:55.226Z,100102.41
2019-04-07T00:25:25.938Z,100101.05
2019-04-07T00:27:56.558Z,100095.54
2019-04-07T00:30:27.236Z,100095.05
2019-04-07T00:32:58.391Z,100093.70
2019-04-07T00:35:32.622Z,100091.13
2019-04-07T00:38:02.523Z,100090.14
2019-04-07T00:40:33.841Z,100088.40
2019-04-07T00:43:04.582Z,100093.07
2019-04-07T00:45:35.408Z,100096.02
2019-04-07T00:48:09.124Z,100089.40
2019-04-07T00:50:40.525Z,100097.75
2019-04-07T00:53:35.703Z,100093.59
2019-04-07T00:56:06.400Z,100091.25
2019-04-07T00:58:37.012Z,100093.20
2019-04-07T01:01:09.112Z,100090.75
2019-04-07T01:03:40.272Z,100089.29
2019-04-07T01:06:11.484Z,100092.09
2019-04-07T01:08:42.488Z,100087.07
2019-04-07T01:11:19.094Z,100085.72
2019-04-07T01:13:49.759Z,100089.88
2019-04-07T01:16:20.799Z,100091.23
2019-04-07T01:18:51.989Z,100089.39
2019-04-07T01:21:37.255Z,100089.29
2019-04-07T01:24:08.934Z,100087.42
2019-04-07T01:26:40.502Z,100094.45
2019-04-07T01:29:11.088Z,100095.19
2019-04-07T01:31:43.098Z,100094.31
2019-04-07T01:34:19.677Z,100095.30
2019-04-07T01:36:50.326Z,100097.39
2019-04-07T01:39:20.917Z,100100.45
2019-04-07T01:41:56.429Z,100097.27
2019-04-07T01:44:39.811Z,100094.81
2019-04-07T01:47:22.277Z,100097.14
2019-04-07T01:50:16.198Z,100097.98
2019-04-07T01:52:51.915Z,100095.41
2019-04-07T01:55:42.279Z,100094.67
2019-04-07T01:58:18.472Z,100092.32
2019-04-07T02:01:08.152Z,100088.88
2019-04-07T02:03:43.271Z,100080.77
2019-04-07T02:06:31.126Z,100084.83
2019-04-07T02:09:03.525Z,100082.09
2019-04-07T02:11:52.984Z,100085.44
2019-04-07T02:14:25.462Z,100087.77
2019-04-07T02:16:57.884Z,100085.80
2019-04-07T02:19:42.374Z,100087.89
2019-04-07T02:22:19.034Z,100083.09
2019-04-07T02:24:51.344Z,100085.02
2019-04-07T02:27:32.722Z,100083.19
2019-04-07T02:30:25.733Z,100080.26
2019-04-07T02:33:14.711Z,100077.88
2019-04-07T02:35:50.503Z,100080.20
2019-04-07T02:38:31.752Z,100076.97
2019-04-07T02:41:04.287Z,100079.41
2019-04-07T02:43:55.842Z,100076.97
2019-04-07T02:46:44.778Z,100081.11
2019-04-07T02:49:17.815Z,100075.58
2019-04-07T02:51:53.028Z,100071.74
2019-04-07T02:54:25.457Z,100075.70
2019-04-07T02:56:57.719Z,100075.56
2019-04-07T02:59:35.821Z,100075.56
2019-04-07T03:02:20.831Z,100078.61
2019-04-07T03:04:56.733Z,100079.44
2019-04-07T03:07:47.233Z,100074.97
2019-04-07T03:10:22.820Z,100083.56
2019-04-07T03:12:55.180Z,100082.55
2019-04-07T03:15:34.246Z,100077.40
2019-04-07T03:18:18.661Z,100082.80
2019-04-07T03:20:53.930Z,100082.67
2019-04-07T03:23:38.433Z,100083.41
2019-04-07T03:26:27.106Z,100080.66
2019-04-07T03:29:05.619Z,100080.73
2019-04-07T03:31:48.584Z,100082.59
2019-04-07T03:34:24.067Z,100084.24
2019-04-07T03:37:30.354Z,100083.50
2019-04-07T03:40:02.564Z,100091.59
2019-04-07T03:42:47.165Z,100088.20
2019-04-07T03:45:20.311Z,100089.16
2019-04-07T03:47:58.959Z,100088.80
2019-04-07T03:50:31.603Z,100091.94
2019-04-07T03:53:20.043Z,100091.94
2019-04-07T03:56:04.446Z,100091.19
2019-04-07T03:58:37.483Z,100090.20
2019-04-07T04:01:19.436Z,100090.83
2019-04-07T04:03:57.145Z,100091.45
2019-04-07T04:06:46.036Z,100091.95
2019-04-07T04:09:24.384Z,100089.42
2019-04-07T04:12:03.121Z,100085.34
2019-04-07T04:14:52.733Z,100088.97
2019-04-07T04:17:23.611Z,100092.13
2019-04-07T04:19:55.126Z,100094.07
2019-04-07T04:22:26.041Z,100097.79
2019-04-07T04:24:57.648Z,100103.42
2019-04-07T04:27:28.350Z,100107.95
2019-04-07T04:29:58.865Z,100102.73
2019-04-07T04:32:29.523Z,100107.97
2019-04-07T04:35:00.931Z,100111.39
2019-04-07T04:37:40.319Z,100111.55
2019-04-07T04:40:07.279Z,100114.57
2019-04-07T04:42:38.124Z,100125.48
2019-04-07T04:45:08.913Z,100126.23
2019-04-07T04:47:39.556Z,100123.38
2019-04-07T04:50:10.303Z,100136.67
2019-04-07T04:52:42.780Z,100137.46
2019-04-07T04:55:15.349Z,100143.45
2019-04-07T04:57:45.983Z,100139.68
2019-04-07T05:00:18.491Z,100132.19
2019-04-07T05:03:02.511Z,100134.38
2019-04-07T05:05:37.944Z,100134.77
2019-04-07T05:08:09.338Z,100143.14
2019-04-07T05:10:40.578Z,100144.16
2019-04-07T05:13:17.201Z,100139.38
2019-04-07T05:15:48.503Z,100149.00
2019-04-07T05:18:19.155Z,100151.34
2019-04-07T05:20:49.952Z,100149.28
2019-04-07T05:23:55.144Z,100156.92
2019-04-07T05:26:26.485Z,100154.23
2019-04-07T05:28:58.322Z,100154.03
2019-04-07T05:31:29.218Z,100155.44
2019-04-07T05:34:00.407Z,100156.50
2019-04-07T05:36:31.374Z,100154.79
2019-04-07T05:39:02.148Z,100169.81
2019-04-07T05:41:32.931Z,100163.16
2019-04-07T05:44:04.582Z,100168.60
2019-04-07T05:46:38.637Z,100169.84
2019-04-07T05:49:15.700Z,100181.62
2019-04-07T05:51:45.321Z,100183.73
2019-04-07T05:54:20.992Z,100173.22
2019-04-07T05:56:53.407Z,100180.02
2019-04-07T05:59:26.277Z,100182.59
2019-04-07T06:02:00.757Z,100186.00
2019-04-07T06:04:29.355Z,100189.89
2019-04-07T06:07:00.438Z,100194.62
2019-04-07T06:09:33.814Z,100197.23
2019-04-07T06:12:14.016Z,100196.34
2019-04-07T06:14:46.588Z,100201.84
2019-04-07T06:17:16.946Z,100198.93
2019-04-07T06:19:47.582Z,100199.55
2019-04-07T06:22:28.266Z,100205.14
2019-04-07T06:25:01.767Z,100207.35
2019-04-07T06:27:31.454Z,100203.19
2019-04-07T06:30:10.789Z,100200.22
2019-04-07T06:32:43.954Z,100207.23
2019-04-07T06:35:14.956Z,100206.56
2019-04-07T06:37:46.716Z,100205.73
2019-04-07T06:40:20.363Z,100207.45
2019-04-07T06:42:49.932Z,100205.51
2019-04-07T06:45:25.245Z,100204.05
2019-04-07T06:48:09.225Z,100201.97
2019-04-07T06:50:58.289Z,100206.29
2019-04-07T06:53:48.985Z,100201.00
2019-04-07T06:56:33.474Z,100202.21
2019-04-07T06:59:38.457Z,100208.00
2019-04-07T07:02:45.634Z,100210.11
2019-04-07T07:05:51.503Z,100207.77
2019-04-07T07:08:44.539Z,100206.39
2019-04-07T07:11:28.037Z,100206.27
2019-04-07T07:13:54.037Z,100209.22
2019-04-07T07:16:32.412Z,100205.01
2019-04-07T07:19:05.223Z,100205.09
2019-04-07T07:21:43.638Z,100209.09
2019-04-07T07:24:25.039Z,100208.20
2019-04-07T07:26:51.924Z,100210.86
2019-04-07T07:29:26.479Z,100209.36
2019-04-07T07:32:00.900Z,100217.89
2019-04-07T07:34:28.422Z,100218.83
2019-04-07T07:36:59.886Z,100224.43
2019-04-07T07:39:36.220Z,100220.92
2019-04-07T07:42:07.242Z,100224.66
2019-04-07T07:44:45.122Z,100226.78
2019-04-07T07:47:41.603Z,100225.23
2019-04-07T07:50:30.003Z,100231.73
2019-04-07T07:53:04.743Z,100231.34
2019-04-07T07:55:42.466Z,100228.06
2019-04-07T07:58:13.900Z,100219.97
2019-04-07T08:00:52.520Z,100223.13
2019-04-07T08:03:30.187Z,100219.77
2019-04-07T08:06:04.678Z,100224.42
2019-04-07T08:08:35.248Z,100227.58
2019-04-07T08:11:06.754Z,100227.77
2019-04-07T08:13:44.440Z,100225.98
2019-04-07T08:16:19.112Z,100224.48
2019-04-07T08:18:49.986Z,100226.91
2019-04-07T08:21:22.547Z,100222.93
2019-04-07T08:23:57.839Z,100227.92
2019-04-07T08:26:33.257Z,100229.37
2019-04-07T08:29:06.739Z,100238.16
2019-04-07T08:31:45.298Z,100230.91
2019-04-07T08:34:16.733Z,100237.05
2019-04-07T08:36:48.397Z,100238.88
2019-04-07T08:39:25.580Z,100237.52
2019-04-07T08:41:53.567Z,100238.20
2019-04-07T08:44:30.501Z,100233.24
2019-04-07T08:47:02.609Z,100236.30
2019-04-07T08:49:41.641Z,100235.39
2019-04-07T08:52:13.459Z,100237.84
2019-04-07T08:54:52.196Z,100236.11
2019-04-07T08:57:30.609Z,100232.75
2019-04-07T09:00:17.386Z,100231.16
2019-04-07T09:03:01.073Z,100231.23
2019-04-07T09:05:27.813Z,100235.98
2019-04-07T09:07:57.378Z,100226.45
2019-04-07T09:10:32.469Z,100223.69
2019-04-07T09:13:12.143Z,100228.81
2019-04-07T09:15:59.011Z,100225.80
2019-04-07T09:18:32.010Z,100227.50
2019-04-07T09:21:20.472Z,100230.92
2019-04-07T09:24:05.000Z,100237.61
2019-04-07T09:26:46.718Z,100243.27
2019-04-07T09:29:24.955Z,100238.89
2019-04-07T09:32:17.830Z,100233.43
2019-04-07T09:34:55.852Z,100233.24
2019-04-07T09:37:28.468Z,100237.51
2019-04-07T09:40:20.151Z,100242.25
2019-04-07T09:42:56.376Z,100239.72
2019-04-07T09:45:33.357Z,100234.67
2019-04-07T09:48:23.280Z,100230.16
2019-04-07T09:51:08.693Z,100237.11
2019-04-07T09:53:41.497Z,100239.20
2019-04-07T09:56:32.723Z,100243.27
2019-04-07T09:59:20.318Z,100238.64
2019-04-07T10:02:13.247Z,100233.73
2019-04-07T10:04:47.656Z,100231.91
2019-04-07T10:07:25.183Z,100231.70
2019-04-07T10:10:13.649Z,100231.07
2019-04-07T10:13:00.687Z,100235.65
2019-04-07T10:15:55.011Z,100238.74
2019-04-07T10:18:44.029Z,100231.28
2019-04-07T10:21:30.048Z,100235.22
2019-04-07T10:24:25.930Z,100237.37
2019-04-07T10:27:27.298Z,100231.27
2019-04-07T10:30:04.703Z,100237.94
2019-04-07T10:32:53.507Z,100234.72
2019-04-07T10:35:30.674Z,100229.34
2019-04-07T10:38:37.422Z,100236.63
2019-04-07T10:41:16.019Z,100240.10
2019-04-07T10:43:55.804Z,100238.46
2019-04-07T10:46:28.603Z,100233.58
2019-04-07T10:49:07.537Z,100238.93
2019-04-07T10:51:56.977Z,100236.13
2019-04-07T10:54:29.377Z,100237.72
2019-04-07T10:57:02.225Z,100241.34
2019-04-07T10:59:41.116Z,100241.22
2019-04-07T11:02:19.585Z,100239.08
2019-04-07T11:05:02.958Z,100249.19
2019-04-07T11:07:51.276Z,100233.52
2019-04-07T11:10:40.161Z,100234.21
2019-04-07T11:13:15.677Z,100239.71
2019-04-07T11:16:08.240Z,100241.23
2019-04-07T11:18:57.227Z,100248.61
2019-04-07T11:21:47.934Z,100242.24
2019-04-07T11:24:31.459Z,100226.39
2019-04-07T11:27:29.394Z,100238.34
2019-04-07T11:30:05.131Z,100225.18
2019-04-07T11:32:54.345Z,100234.94
2019-04-07T11:35:35.861Z,100223.67
2019-04-07T11:38:10.858Z,100233.07
2019-04-07T11:40:50.001Z,100221.95
2019-04-07T11:43:30.507Z,100223.85
2019-04-07T11:46:03.423Z,100232.20
2019-04-07T11:48:40.469Z,100226.45
2019-04-07T11:51:16.198Z,100238.59
2019-04-07T11:54:03.731Z,100231.92
2019-04-07T11:56:46.037Z,100229.15
2019-04-07T11:59:36.012Z,100216.55
2019-04-07T12:02:27.335Z,100231.78
2019-04-07T12:05:16.914Z,100223.06
2019-04-07T12:07:56.712Z,100220.28
2019-04-07T12:10:34.145Z,100222.69
2019-04-07T12:13:10.264Z,100222.34
2019-04-07T12:16:10.309Z,100222.17
2019-04-07T12:18:51.368Z,100223.70
2019-04-07T12:21:38.252Z,100217.86
2019-04-07T12:24:13.743Z,100212.36
2019-04-07T12:26:56.604Z,100209.64
2019-04-07T12:29:41.691Z,100214.41
2019-04-07T12:32:42.257Z,100209.34
2019-04-07T12:35:27.627Z,100207.48
2019-04-07T12:38:10.080Z,100214.66
2019-04-07T12:40:59.422Z,100219.45
2019-04-07T12:43:27.755Z,100222.38
2019-04-07T12:46:19.332Z,100217.58
2019-04-07T12:49:10.112Z,100212.79
2019-04-07T12:52:04.356Z,100217.22
2019-04-07T12:54:37.618Z,100209.68
2019-04-07T12:57:27.324Z,100211.03
2019-04-07T13:00:13.525Z,100208.12
2019-04-07T13:02:47.484Z,100201.76
2019-04-07T13:05:22.955Z,100204.51
2019-04-07T13:08:01.578Z,100214.80
2019-04-07T13:10:40.225Z,100220.98
2019-04-07T13:13:15.949Z,100214.14
2019-04-07T13:15:58.203Z,100206.23
2019-04-07T13:18:46.507Z,100213.81
2019-04-07T13:21:30.003Z,100214.48
2019-04-07T13:24:06.291Z,100211.75
2019-04-07T13:26:38.973Z,100207.98
2019-04-07T13:29:14.627Z,100201.48
2019-04-07T13:32:06.010Z,100200.11
2019-04-07T13:34:38.462Z,100211.06
2019-04-07T13:37:23.438Z,100201.30
2019-04-07T13:40:05.103Z,100200.61
2019-04-07T13:42:43.108Z,100208.31
2019-04-07T13:45:24.791Z,100203.37
2019-04-07T13:47:57.902Z,100205.75
2019-04-07T13:50:45.957Z,100207.48
2019-04-07T13:53:36.766Z,100202.83
2019-04-07T13:56:18.390Z,100207.63
2019-04-07T13:58:56.988Z,100204.91
2019-04-07T14:01:36.314Z,100196.51
2019-04-07T14:04:17.892Z,100205.23
2019-04-07T14:06:50.424Z,100202.85
2019-04-07T14:09:32.473Z,100200.80
2019-04-07T14:12:11.632Z,100200.91
2019-04-07T14:14:45.004Z,100195.33
2019-04-07T14:17:27.297Z,100200.91
2019-04-07T14:20:16.463Z,100199.54
2019-04-07T14:23:05.323Z,100205.88
2019-04-07T14:25:55.134Z,100205.20
2019-04-07T14:28:45.754Z,100207.24
2019-04-07T14:31:18.184Z,100204.65
2019-04-07T14:34:07.841Z,100202.44
2019-04-07T14:36:40.475Z,100198.84
2019-04-07T14:39:37.570Z,100203.44
2019-04-07T14:42:26.386Z,100207.05
2019-04-07T14:45:12.121Z,100211.64
2019-04-07T14:47:48.427Z,100203.44
2019-04-07T14:50:37.480Z,100203.94
2019-04-07T14:53:17.664Z,100207.88
2019-04-07T14:56:02.186Z,100212.84
2019-04-07T14:58:33.353Z,100206.37
2019-04-07T15:01:16.760Z,100207.92
2019-04-07T15:03:48.498Z,100204.83
2019-04-07T15:06:19.422Z,100208.07
2019-04-07T15:09:10.559Z,100208.94
2019-04-07T15:11:46.855Z,100206.55
2019-04-07T15:14:18.032Z,100208.25
2019-04-07T15:16:49.178Z,100208.62
2019-04-07T15:19:21.062Z,100208.25
2019-04-07T15:21:55.366Z,100211.03
2019-04-07T15:24:30.651Z,100209.63
2019-04-07T15:27:01.572Z,100211.53
2019-04-07T15:29:38.411Z,100208.25
2019-04-07T15:32:07.849Z,100209.63
2019-04-07T15:34:42.251Z,100209.63
2019-04-07T15:37:14.285Z,100209.98
2019-04-07T15:39:52.971Z,100202.09
2019-04-07T15:42:35.169Z,100200.90
2019-04-07T15:45:03.152Z,100203.82
2019-04-07T15:47:40.455Z,100197.31
2019-04-07T15:50:14.235Z,100203.14
2019-04-07T15:52:47.427Z,100214.95
2019-04-07T15:55:18.874Z,100212.54
2019-04-07T15:57:54.878Z,100219.20
2019-04-07T16:00:24.044Z,100219.89
2019-04-07T16:03:00.416Z,100219.55
2019-04-07T16:05:37.807Z,100220.23
2019-04-07T16:08:13.607Z,100221.53
2019-04-07T16:10:45.130Z,100214.70
2019-04-07T16:13:19.831Z,100221.21
2019-04-07T16:15:57.539Z,100217.25
2019-04-07T16:18:37.049Z,100220.52
2019-04-07T16:21:12.754Z,100224.28
2019-04-07T16:23:52.847Z,100220.72
2019-04-07T16:26:30.151Z,100224.46
2019-04-07T16:29:01.260Z,100226.50
2019-04-07T16:31:32.280Z,100227.84
2019-04-07T16:34:10.720Z,100233.14
2019-04-07T16:36:43.708Z,100236.94
2019-04-07T16:39:19.891Z,100243.02
2019-04-07T16:41:53.406Z,100237.91
2019-04-07T16:44:43.910Z,100237.72
2019-04-07T16:47:20.888Z,100242.36
2019-04-07T16:49:48.833Z,100240.96
2019-04-07T16:52:20.431Z,100250.17
2019-04-07T16:54:52.691Z,100246.89
2019-04-07T16:57:28.198Z,100244.66
2019-04-07T16:59:58.350Z,100246.70
2019-04-07T17:02:29.558Z,100249.27
2019-04-07T17:05:01.758Z,100254.60
2019-04-07T17:07:44.275Z,100257.80
2019-04-07T17:10:13.343Z,100253.15
2019-04-07T17:12:44.105Z,100259.31
2019-04-07T17:15:19.784Z,100261.69
2019-04-07T17:17:53.083Z,100267.30
2019-04-07T17:20:27.204Z,100271.91
2019-04-07T17:22:56.868Z,100261.97
2019-04-07T17:25:33.633Z,100267.38
2019-04-07T17:28:07.884Z,100270.09
2019-04-07T17:30:39.604Z,100265.66
2019-04-07T17:33:11.215Z,100274.65
2019-04-07T17:35:45.241Z,100272.76
2019-04-07T17:38:23.938Z,100272.95
2019-04-07T17:40:56.774Z,100275.13
2019-04-07T17:43:40.541Z,100277.22
2019-04-07T17:46:10.504Z,100278.34
2019-04-07T17:49:15.272Z,100276.13
2019-04-07T17:51:57.457Z,100282.07
2019-04-07T17:54:54.147Z,100285.64
2019-04-07T17:57:42.903Z,100287.64
2019-04-07T18:00:18.918Z,100285.47
2019-04-07T18:03:09.873Z,100288.11
2019-04-07T18:06:04.218Z,100287.38
2019-04-07T18:09:02.359Z,100289.88
2019-04-07T18:11:31.802Z,100295.31
2019-04-07T18:14:20.959Z,100302.37
2019-04-07T18:17:18.607Z,100305.39
2019-04-07T18:20:09.562Z,100309.19
2019-04-07T18:22:54.176Z,100316.64
2019-04-07T18:25:43.051Z,100315.58
2019-04-07T18:28:21.758Z,100312.30
2019-04-07T18:31:13.229Z,100317.56
2019-04-07T18:33:53.608Z,100324.84
2019-04-07T18:36:45.981Z,100322.98
2019-04-07T18:39:35.327Z,100336.84
2019-04-07T18:42:18.116Z,100347.88
2019-04-07T18:44:55.456Z,100347.72
2019-04-07T18:47:45.390Z,100351.17
2019-04-07T18:50:25.226Z,100352.99
2019-04-07T18:53:09.211Z,100358.40
2019-04-07T18:55:58.250Z,100366.36
2019-04-07T18:58:42.730Z,100373.01
2019-04-07T19:01:18.199Z,100372.14
2019-04-07T19:04:02.507Z,100374.72
2019-04-07T19:06:48.898Z,100383.69
2019-04-07T19:09:35.760Z,100381.38
2019-04-07T19:12:14.144Z,100384.66
2019-04-07T19:15:08.042Z,100390.30
2019-04-07T19:17:55.880Z,100393.63
2019-04-07T19:20:28.196Z,100393.63
2019-04-07T19:23:04.392Z,100394.98
2019-04-07T19:25:45.377Z,100397.77
2019-04-07T19:28:37.134Z,100401.08
2019-04-07T19:31:29.953Z,100401.80
2019-04-07T19:34:35.554Z,100402.88
2019-04-07T19:37:08.324Z,100405.23
2019-04-07T19:39:56.477Z,100408.56
2019-04-07T19:42:37.732Z,100402.05
2019-04-07T19:45:22.853Z,100408.78
2019-04-07T19:48:16.521Z,100407.81
2019-04-07T19:50:55.392Z,100416.14
2019-04-07T19:53:34.874Z,100411.02
2019-04-07T19:56:25.761Z,100414.11
2019-04-07T19:58:58.462Z,100412.61
2019-04-07T20:01:44.399Z,100417.98
2019-04-07T20:04:32.742Z,100414.97
2019-04-07T20:07:18.595Z,100410.81
2019-04-07T20:09:51.289Z,100414.72
2019-04-07T20:12:36.322Z,100414.56
2019-04-07T20:15:24.568Z,100422.96
2019-04-07T20:18:05.583Z,100426.66
2019-04-07T20:20:43.167Z,100426.05
2019-04-07T20:23:19.695Z,100426.70
2019-04-07T20:26:10.020Z,100424.16
2019-04-07T20:28:46.945Z,100427.59
2019-04-07T20:31:28.443Z,100431.09
2019-04-07T20:34:04.348Z,100431.35
2019-04-07T20:36:42.312Z,100427.41
2019-04-07T20:39:30.841Z,100437.48
2019-04-07T20:42:05.168Z,100435.29
2019-04-07T20:44:58.452Z,100431.30
2019-04-07T20:47:36.399Z,100429.94
2019-04-07T20:50:10.739Z,100429.55
2019-04-07T20:52:42.808Z,100431.23
2019-04-07T20:55:19.342Z,100431.02
2019-04-07T20:58:17.229Z,100429.69
2019-04-07T21:00:55.017Z,100426.73
2019-04-07T21:03:24.265Z,100423.69
2019-04-07T21:06:25.212Z,100430.77
2019-04-07T21:09:03.792Z,100426.50
2019-04-07T21:12:06.118Z,100422.19
2019-04-07T21:14:44.088Z,100425.05
2019-04-07T21:17:35.445Z,100424.62
2019-04-07T21:20:27.830Z,100420.55
2019-04-07T21:23:05.915Z,100427.39
2019-04-07T21:25:39.183Z,100420.50
2019-04-07T21:28:21.026Z,100425.84
2019-04-07T21:30:58.865Z,100428.10
2019-04-07T21:33:49.633Z,100423.30
2019-04-07T21:36:28.261Z,100431.97
2019-04-07T21:39:08.718Z,100427.27
2019-04-07T21:41:59.260Z,100427.89
2019-04-07T21:44:43.541Z,100435.09
2019-04-07T21:47:33.978Z,100429.03
2019-04-07T21:50:10.480Z,100434.84
2019-04-07T21:52:55.348Z,100443.50
2019-04-07T21:55:30.823Z,100450.45
2019-04-07T21:58:27.142Z,100448.11
2019-04-07T22:01:11.673Z,100440.95
2019-04-07T22:03:49.264Z,100446.89
2019-04-07T22:06:29.314Z,100446.27
2019-04-07T22:09:07.720Z,100448.38
2019-04-07T22:11:44.643Z,100449.97
2019-04-07T22:14:16.861Z,100456.37
2019-04-07T22:16:49.120Z,100453.53
2019-04-07T22:19:24.374Z,100457.98
2019-04-07T22:22:16.685Z,100457.87
2019-04-07T22:24:47.619Z,100462.07
2019-04-07T22:27:28.632Z,100459.20
2019-04-07T22:30:06.513Z,100462.53
2019-04-07T22:32:54.129Z,100458.61
2019-04-07T22:35:26.640Z,100463.52
2019-04-07T22:38:03.088Z,100459.58
2019-04-07T22:40:38.780Z,100455.13
2019-04-07T22:43:07.179Z,100458.81
2019-04-07T22:45:39.074Z,100455.27
2019-04-07T22:48:10.658Z,100454.63
2019-04-07T22:50:41.390Z,100459.05
2019-04-07T22:53:33.162Z,100459.44
2019-04-07T22:56:06.351Z,100456.95
2019-04-07T22:58:36.609Z,100462.31
2019-04-07T23:01:07.742Z,100460.34
2019-04-07T23:03:45.467Z,100456.27
2019-04-07T23:06:16.837Z,100461.17
2019-04-07T23:08:55.758Z,100460.25
2019-04-07T23:11:27.909Z,100461.13
2019-04-07T23:14:04.844Z,100461.25
2019-04-07T23:16:36.001Z,100461.81
2019-04-07T23:19:06.823Z,100467.09
2019-04-07T23:21:37.578Z,100466.73
2019-04-07T23:24:08.519Z,100466.73
2019-04-07T23:26:39.289Z,100467.22
2019-04-07T23:29:15.055Z,100465.00
2019-04-07T23:31:51.322Z,100462.89
2019-04-07T23:34:22.079Z,100464.64
2019-04-07T23:36:57.586Z,100466.60
2019-04-07T23:39:31.205Z,100465.66
2019-04-07T23:42:02.807Z,100465.06
2019-04-07T23:44:33.525Z,100468.28
2019-04-07T23:47:05.675Z,100468.72
2019-04-07T23:49:37.290Z,100469.66
2019-04-07T23:52:08.906Z,100469.17
2019-04-07T23:54:39.762Z,100476.19
2019-04-07T23:57:11.315Z,100469.38
2019-04-07T23:59:42.218Z,100474.77
